PHJR METAR and TAF | Updated Today

PHJR METAR

Kalaeloa Airport

Observation time: 46 min. ago

PHJR 061753Z 01004KT 10SM CLR 22/18 A3019 RMK AO2 SLP228 T02220178 10222 20206 53010 $

Need help? Read our tutorial on how to read METARs or read the parsed version below.

Kalaeloa Airport (PHJR) METAR

  • Weather conditions on Mon, 06 Feb 2023 17:53:00 +0000 (46 min. ago):
  • Present conditions: Dry
  • Clouds: Clear skies
  • Visibility: 16093 meters
  • Wind: 10 degrees at 4 knots
  • Temperature: 22 celsius
  • Dew point: 18 celsius
  • Pressure: 30.19 inHg
  • Remarks: AO2 SLP228 T02220178 10222 20206 53010 $


Useful to know...

PHJR TAF

Kalaeloa Airport

PHJR 061731Z 0618/0718 03009KT P6SM FEW030 FM062000 04011G18KT P6SM FEW035 SCT045 FM070600 04008KT P6SM FEW030 FEW050
Observation time: 68 min. ago
Need help? Read our tutorial on how to read TAFs or read the parsed version below.

Parsed version of TAF for Kalaeloa Airport (PHJR)

  • From 06 February at 18:00 UTC, to day 07 of the month at 18:00 UTC
  • Clouds: A few at 914 meters
  • Wind: 30 degrees at 9
  • From day 6 of the month at 20:00 UTC
  • Clouds: A few at 1067 meters; scattered at 1372 meters
  • Wind: 40 degrees at 11
  • From day 7 of the month at 06:00 UTC
  • Clouds: A few at 914 meters; a few at 1524 meters
  • Wind: 40 degrees at 8